Nearby METAR Reports

 

KSEE - San Diego/Santee, California, USA
Distance from station: E 4mi, 6km
Updated: 10/21/2017 3:47pm
Clear
Clear
 Wind from WNW
Wind: WNW 10 mph , 17 km/h
Temperature: 79°F , 26°C
Dew Point: 54°F , 12°C
Humidity: 42%
Barometer: 29.98 inHg , 1015.2 hPa
Clouds: Clear
Visibility: 10 miles , 16 km
2017/10/21 22:47 KSEE 212247Z 30009KT 10SM SKC 26/12 A2998
KMYF - San Diego/Mntgmy, California, USA
Distance from station: W 6mi, 10km
Updated: 10/21/2017 3:53pm
Clear
Clear
 Wind from NW
Wind: NW 14 mph , 22 km/h
Temperature: 77°F , 25°C
Dew Point: 55°F , 13°C
Humidity: 47%
Barometer: 29.99 inHg , 1015.6 hPa
Clouds: Clear
Visibility: 10 miles , 16 km
2017/10/21 22:53 KMYF 212253Z 31012KT 10SM CLR 25/13 A2999 RMK AO2 SLP153 T02500128
 
KNKX - Miramar Nas/San, California, USA
Distance from station: WNW 7mi, 11km
Updated: 10/21/2017 2:55pm
Few Clouds
Few Clouds
 Wind from NW
Wind: NW 13 mph , 20 km/h
Temperature: 79°F , 26°C
Dew Point: 57°F , 14°C
Humidity: 48%
Barometer: 29.99 inHg , 1015.6 hPa
Clouds: Few Clouds
Visibility: 10 miles , 16 km
Cloud details: Few Clouds 3000 ft
2017/10/21 21:55 KNKX 212155Z 31011KT 10SM FEW030 26/14 A2999 RMK AO2 SLP149 T02560139 $
KSAN - San Diego, California, USA
Distance from station: WSW 11mi, 17km
Updated: 10/21/2017 3:51pm
Clear
Clear
 Wind from NW
Wind: NW 13 mph , 20 km/h
Temperature: 73°F , 23°C
Dew Point: 55°F , 13°C
Humidity: 53%
Barometer: 30.00 inHg , 1015.9 hPa
Clouds: Clear
Visibility: 10 miles , 16 km
2017/10/21 22:51 KSAN 212251Z 31011KT 10SM CLR 23/13 A3000 RMK AO2 SLP158 T02280133 $
 
KNZY - North Island Nas, California, USA
Distance from station: SW 13mi, 22km
Updated: 10/21/2017 3:52pm
Clear
Clear
 Wind from NW
Wind: NW 21 mph , 33 km/h
Temperature: 72°F , 22°C
Dew Point: 57°F , 14°C
Humidity: 61%
Barometer: 29.98 inHg , 1015.2 hPa
Clouds: Clear
Visibility: 10 miles , 16 km
2017/10/21 22:52 KNZY 212252Z 32018KT 10SM CLR 22/14 A2998 RMK SLP151 T02220139
KRNM - Ramona, California, USA
Distance from station: NNE 16mi, 26km
Updated: 10/21/2017 3:53pm
Clear
Clear
 Wind from WNW
Wind: WNW 13 mph , 20 km/h
Temperature: 79°F , 26°C
Dew Point: 52°F , 11°C
Humidity: 39%
Barometer: 30.01 inHg , 1016.3 hPa
Clouds: Clear
Visibility: 10 miles , 16 km
2017/10/21 22:53 KRNM 212253Z 30011KT 10SM CLR 26/11 A3001 RMK AO2 SLP152 T02610106 $
 
KSDM - San Diego/Brown, California, USA
Distance from station: S 16mi, 26km
Updated: 10/21/2017 3:53pm
Clear
Clear
 Wind from W
Wind: W 10 mph , 17 km/h
Temperature: 73°F , 23°C
Dew Point: 57°F , 14°C
Humidity: 57%
Barometer: 29.99 inHg , 1015.6 hPa
Clouds: Clear
Visibility: 10 miles , 16 km
2017/10/21 22:53 KSDM 212253Z 28009KT 10SM CLR 23/14 A2999 RMK AO2 SLP150 T02330139
KNRS - Imperial Beach, California, USA
Distance from station: SSW 18mi, 29km
Updated: 10/21/2017 3:56pm
Clear
Clear
 Wind from WNW
Wind: WNW 16 mph , 26 km/h
Temperature: 72°F , 22°C
Dew Point: 57°F , 14°C
Humidity: 61%
Barometer: 29.99 inHg , 1015.6 hPa
Clouds: Clear
Visibility: 10 miles , 16 km
2017/10/21 22:56 KNRS 212256Z AUTO 29014KT 10SM CLR 22/14 A2999 RMK AO2 SLP155 T02170139 $
 
MMTJ - Tijuana Intl Arp, Mexico
Distance from station: S 20mi, 32km
Updated: 10/21/2017 2:48pm
NOT Current
Clear
Clear
 Wind from W
Wind: W 12 mph , 19 km/h
Temperature: 73°F , 23°C
Dew Point: 55°F , 13°C
Humidity: 53%
Barometer: 30.00 inHg , 1015.9 hPa
Clouds: Clear
Visibility: 10 miles , 16 km
2017/10/21 21:48 MMTJ 212148Z 28010KT 10SM SKC 23/13 A3000 RMK HZY
KCRQ - Carlsbad, California, USA
Distance from station: NW 26mi, 43km
Updated: 10/21/2017 3:53pm
Clear
Clear
 Wind from WNW
Wind: WNW 6 mph , 9 km/h
Temperature: 70°F , 21°C
Dew Point: 59°F , 15°C
Humidity: 69%
Barometer: 29.99 inHg , 1015.6 hPa
Clouds: Clear
Visibility: 10 miles , 16 km
2017/10/21 22:53 KCRQ 212253Z AUTO 30005KT 10SM CLR 21/15 A2999 RMK AO2 SLP153 T02110150
 
KOKB - Oceanside, California, USA
Distance from station: NW 33mi, 54km
Updated: 10/21/2017 3:52pm
Clear
Clear
 Wind from WNW
Wind: WNW 12 mph , 19 km/h, Gust: 18 mph , 30 km/h
Temperature: 72°F , 22°C
Dew Point: 61°F , 16°C
Humidity: 69%
Barometer: 29.98 inHg , 1015.2 hPa
Clouds: Clear
Visibility: 10 miles , 16 km
2017/10/21 22:52 KOKB 212252Z AUTO 30010G16KT 10SM CLR 22/16 A2998 RMK AO2 SLP152 T02220156
KCZZ - Campo, California, USA
Distance from station: ESE 35mi, 56km
Updated: 10/21/2017 3:52pm

 Wind from ENE
Wind: ENE 22 mph , 35 km/h, Gust: 30 mph , 48 km/h
Temperature: 73°F , 23°C
Dew Point: 25°F , -4°C
Humidity: 16%
Barometer: 30.03 inHg , 1016.9 hPa
2017/10/21 22:52 KCZZ 212252Z AUTO 06019G26KT 23/M04 A3003 RMK AO1 PK WND 06026/2250 SLP149 T02281044
 
KNFG - Camp Pendleton, California, USA
Distance from station: NNW 37mi, 59km
Updated: 10/21/2017 3:57pm
Clear
Clear
 Wind from SW
Wind: SW 6 mph , 9 km/h
Temperature: 73°F , 23°C
Dew Point: 57°F , 14°C
Humidity: 57%
Barometer: 29.98 inHg , 1015.2 hPa
Clouds: Clear
Visibility: 10 miles , 16 km
2017/10/21 22:57 KNFG 212257Z 23005KT 10SM CLR 23/14 A2998 RMK AO2 SLP151 T02330144
KRIV - Riverside/March, California, USA
Distance from station: N 74mi, 119km
Updated: 10/21/2017 2:58pm
Clear
Clear
 Wind from N
Wind: N 7 mph , 11 km/h, Gust: 16 mph , 26 km/h
Temperature: 81°F , 27°C
Dew Point: 28°F , -2°C
Humidity: 15%
Barometer: 30.02 inHg , 1016.6 hPa
Clouds: Clear
Visibility: 10 miles , 16 km
2017/10/21 21:58 KRIV 212158Z 36006G14KT 10SM CLR 27/M02 A3002 RMK AO2A SLP156 T02711023
 
KTRM - Thermal/Palm Spg, California, USA
Distance from station: NE 75mi, 121km
Updated: 10/21/2017 3:52pm
Clear
Clear
 Wind from W
Wind: W 5 mph , 7 km/h
Temperature: 88°F , 31°C
Dew Point: 23°F , -5°C
Humidity: 9%
Barometer: 29.98 inHg , 1015.2 hPa
Clouds: Clear
Visibility: 10 miles , 16 km
2017/10/21 22:52 KTRM 212252Z AUTO 27004KT 10SM CLR 31/M05 A2998 RMK AO2 SLP154 T03061050
KPSP - Palm Springs, California, USA
Distance from station: NNE 76mi, 122km
Updated: 10/21/2017 3:53pm
Clear
Clear
 Wind from SSW
Wind: SSW 7 mph , 11 km/h
Temperature: 84°F , 29°C
Dew Point: 23°F , -5°C
Humidity: 10%
Barometer: 30.04 inHg , 1017.3 hPa
Clouds: Clear
Visibility: 10 miles , 16 km
2017/10/21 22:53 KPSP 212253Z 21006KT 10SM CLR 29/M05 A3004 RMK AO2 SLP170 T02941050
 
KSNA - Costa Mesa, California, USA
Distance from station: NW 76mi, 123km
Updated: 10/21/2017 3:53pm
Few Clouds
Few Clouds
 Wind from SW
Wind: SW 9 mph , 15 km/h
Temperature: 72°F , 22°C
Dew Point: 57°F , 14°C
Humidity: 61%
Barometer: 30.01 inHg , 1016.3 hPa
Clouds: Few Clouds
Visibility: 10 miles , 16 km
Cloud details: Few Clouds 28000 ft
2017/10/21 22:53 KSNA 212253Z 22008KT 10SM FEW280 22/14 A3001 RMK AO2 SLP160 T02220144
KNJK - El Centro Naf, California, USA
Distance from station: E 79mi, 127km
Updated: 10/21/2017 3:56pm
Clear
Clear
 Wind from N
Wind: N 12 mph , 19 km/h
Temperature: 84°F , 29°C
Dew Point: 21°F , -6°C
Humidity: 10%
Barometer: 30.01 inHg , 1016.3 hPa
Clouds: Clear
Visibility: 10 miles , 16 km
2017/10/21 22:56 KNJK 212256Z AUTO 01010KT 10SM CLR 29/M06 A3001 RMK AO2 SLP179 T02941056
 
KAJO - Corona Muni, California, USA
Distance from station: NNW 82mi, 132km
Updated: 10/21/2017 3:56pm
Clear
Clear
 Wind from W
Wind: W 7 mph , 11 km/h
Temperature: 82°F , 28°C
Dew Point: 45°F , 7°C
Humidity: 26%
Barometer: 30.01 inHg , 1016.3 hPa
Clouds: Clear
Visibility: 10 miles , 16 km
2017/10/21 22:56 KAJO 212256Z AUTO 28006KT 10SM CLR 28/07 A3001 RMK AO2 SLP169 T02780067